sensor_id;sensor_type;location;lat;lon;timestamp;P1;durP1;ratioP1;P2;durP2;ratioP2
18526;SDS011;9393;42.158;24.748;2023-11-22T00:02:03;27.43;;;14.83;;
18526;SDS011;9393;42.158;24.748;2023-11-22T00:05:09;30.93;;;16.17;;
18526;SDS011;9393;42.158;24.748;2023-11-22T00:08:13;29.67;;;15.70;;
18526;SDS011;9393;42.158;24.748;2023-11-22T00:11:18;28.23;;;14.77;;
18526;SDS011;9393;42.158;24.748;2023-11-22T00:14:22;28.00;;;15.43;;
18526;SDS011;9393;42.158;24.748;2023-11-22T00:17:27;31.50;;;16.53;;
18526;SDS011;9393;42.158;24.748;2023-11-22T00:20:32;31.30;;;16.20;;
18526;SDS011;9393;42.158;24.748;2023-11-22T00:23:37;30.20;;;16.10;;
18526;SDS011;9393;42.158;24.748;2023-11-22T00:26:41;29.90;;;16.30;;
18526;SDS011;9393;42.158;24.748;2023-11-22T00:29:45;29.43;;;16.47;;
18526;SDS011;9393;42.158;24.748;2023-11-22T00:32:50;30.70;;;16.90;;
18526;SDS011;9393;42.158;24.748;2023-11-22T00:35:55;29.33;;;16.43;;
18526;SDS011;9393;42.158;24.748;2023-11-22T00:39:00;32.77;;;16.23;;
18526;SDS011;9393;42.158;24.748;2023-11-22T00:42:06;28.83;;;16.37;;
18526;SDS011;9393;42.158;24.748;2023-11-22T00:45:10;29.60;;;15.53;;
18526;SDS011;9393;42.158;24.748;2023-11-22T00:48:14;26.27;;;15.77;;
18526;SDS011;9393;42.158;24.748;2023-11-22T00:51:20;25.37;;;14.50;;
18526;SDS011;9393;42.158;24.748;2023-11-22T00:54:25;26.57;;;15.10;;
18526;SDS011;9393;42.158;24.748;2023-11-22T00:57:29;27.07;;;15.67;;
18526;SDS011;9393;42.158;24.748;2023-11-22T01:00:33;28.73;;;15.33;;
18526;SDS011;9393;42.158;24.748;2023-11-22T01:03:37;27.40;;;15.93;;
18526;SDS011;9393;42.158;24.748;2023-11-22T01:06:43;24.70;;;15.53;;
18526;SDS011;9393;42.158;24.748;2023-11-22T01:09:48;28.00;;;14.90;;
18526;SDS011;9393;42.158;24.748;2023-11-22T01:12:52;24.13;;;15.07;;
18526;SDS011;9393;42.158;24.748;2023-11-22T01:15:57;22.43;;;14.20;;
18526;SDS011;9393;42.158;24.748;2023-11-22T01:19:01;27.43;;;14.30;;
18526;SDS011;9393;42.158;24.748;2023-11-22T01:22:07;22.73;;;14.20;;
18526;SDS011;9393;42.158;24.748;2023-11-22T01:25:11;30.57;;;15.10;;
18526;SDS011;9393;42.158;24.748;2023-11-22T01:28:16;26.30;;;14.27;;
18526;SDS011;9393;42.158;24.748;2023-11-22T01:31:20;22.13;;;13.80;;
18526;SDS011;9393;42.158;24.748;2023-11-22T01:34:25;22.53;;;14.50;;
18526;SDS011;9393;42.158;24.748;2023-11-22T01:37:31;21.83;;;13.60;;
18526;SDS011;9393;42.158;24.748;2023-11-22T01:40:42;22.60;;;13.37;;
18526;SDS011;9393;42.158;24.748;2023-11-22T01:43:47;22.70;;;14.73;;
18526;SDS011;9393;42.158;24.748;2023-11-22T01:46:52;23.20;;;13.83;;
18526;SDS011;9393;42.158;24.748;2023-11-22T01:49:57;24.53;;;14.33;;
18526;SDS011;9393;42.158;24.748;2023-11-22T01:53:03;27.97;;;14.80;;
18526;SDS011;9393;42.158;24.748;2023-11-22T01:56:08;22.77;;;13.83;;
18526;SDS011;9393;42.158;24.748;2023-11-22T01:59:12;24.63;;;15.57;;
18526;SDS011;9393;42.158;24.748;2023-11-22T02:02:17;26.07;;;15.27;;
18526;SDS011;9393;42.158;24.748;2023-11-22T02:05:22;25.50;;;14.80;;
18526;SDS011;9393;42.158;24.748;2023-11-22T02:08:28;27.67;;;15.03;;
18526;SDS011;9393;42.158;24.748;2023-11-22T02:11:32;24.67;;;15.23;;
18526;SDS011;9393;42.158;24.748;2023-11-22T02:14:37;27.13;;;15.90;;
18526;SDS011;9393;42.158;24.748;2023-11-22T02:17:43;28.80;;;16.10;;
18526;SDS011;9393;42.158;24.748;2023-11-22T02:20:48;26.60;;;15.63;;
18526;SDS011;9393;42.158;24.748;2023-11-22T02:23:54;27.90;;;15.73;;
18526;SDS011;9393;42.158;24.748;2023-11-22T02:26:59;22.27;;;13.93;;
18526;SDS011;9393;42.158;24.748;2023-11-22T02:30:04;25.77;;;15.17;;
18526;SDS011;9393;42.158;24.748;2023-11-22T02:33:09;29.37;;;15.30;;
18526;SDS011;9393;42.158;24.748;2023-11-22T02:36:14;26.73;;;15.70;;
18526;SDS011;9393;42.158;24.748;2023-11-22T02:39:20;25.73;;;15.00;;
18526;SDS011;9393;42.158;24.748;2023-11-22T02:42:28;25.23;;;15.87;;
18526;SDS011;9393;42.158;24.748;2023-11-22T02:45:32;27.50;;;16.30;;
18526;SDS011;9393;42.158;24.748;2023-11-22T02:48:37;29.60;;;16.43;;
18526;SDS011;9393;42.158;24.748;2023-11-22T02:51:41;24.53;;;16.33;;
18526;SDS011;9393;42.158;24.748;2023-11-22T02:54:47;24.93;;;15.50;;
18526;SDS011;9393;42.158;24.748;2023-11-22T02:57:51;23.77;;;14.13;;
18526;SDS011;9393;42.158;24.748;2023-11-22T03:00:55;30.33;;;16.17;;
18526;SDS011;9393;42.158;24.748;2023-11-22T03:04:00;28.73;;;17.23;;
18526;SDS011;9393;42.158;24.748;2023-11-22T03:07:04;25.60;;;15.60;;
18526;SDS011;9393;42.158;24.748;2023-11-22T03:10:10;25.37;;;15.50;;
18526;SDS011;9393;42.158;24.748;2023-11-22T03:13:15;25.53;;;15.60;;
18526;SDS011;9393;42.158;24.748;2023-11-22T03:16:19;27.33;;;15.40;;
18526;SDS011;9393;42.158;24.748;2023-11-22T03:19:23;24.67;;;16.23;;
18526;SDS011;9393;42.158;24.748;2023-11-22T03:22:28;23.50;;;15.27;;
18526;SDS011;9393;42.158;24.748;2023-11-22T03:25:36;25.80;;;15.93;;
18526;SDS011;9393;42.158;24.748;2023-11-22T03:28:41;26.60;;;15.00;;
18526;SDS011;9393;42.158;24.748;2023-11-22T03:31:46;24.20;;;15.03;;
18526;SDS011;9393;42.158;24.748;2023-11-22T03:34:50;24.90;;;14.30;;
18526;SDS011;9393;42.158;24.748;2023-11-22T03:37:54;27.43;;;15.57;;
18526;SDS011;9393;42.158;24.748;2023-11-22T03:41:00;25.60;;;15.00;;
18526;SDS011;9393;42.158;24.748;2023-11-22T03:44:05;24.63;;;15.07;;
18526;SDS011;9393;42.158;24.748;2023-11-22T03:47:13;25.10;;;15.63;;
18526;SDS011;9393;42.158;24.748;2023-11-22T03:50:20;26.30;;;15.33;;
18526;SDS011;9393;42.158;24.748;2023-11-22T03:53:25;27.43;;;15.63;;
18526;SDS011;9393;42.158;24.748;2023-11-22T03:56:31;27.13;;;15.60;;
18526;SDS011;9393;42.158;24.748;2023-11-22T03:59:35;26.00;;;15.87;;
18526;SDS011;9393;42.158;24.748;2023-11-22T04:02:40;28.77;;;15.83;;
18526;SDS011;9393;42.158;24.748;2023-11-22T04:05:44;30.10;;;15.67;;
18526;SDS011;9393;42.158;24.748;2023-11-22T04:08:48;25.63;;;14.53;;
18526;SDS011;9393;42.158;24.748;2023-11-22T04:11:56;24.13;;;14.73;;
18526;SDS011;9393;42.158;24.748;2023-11-22T04:15:01;27.37;;;15.60;;
18526;SDS011;9393;42.158;24.748;2023-11-22T04:18:06;28.90;;;16.17;;
18526;SDS011;9393;42.158;24.748;2023-11-22T04:21:11;28.40;;;16.10;;
18526;SDS011;9393;42.158;24.748;2023-11-22T04:24:16;29.67;;;16.07;;
18526;SDS011;9393;42.158;24.748;2023-11-22T04:27:22;30.37;;;16.10;;
18526;SDS011;9393;42.158;24.748;2023-11-22T04:30:26;25.23;;;15.23;;
18526;SDS011;9393;42.158;24.748;2023-11-22T04:33:30;30.80;;;14.77;;
18526;SDS011;9393;42.158;24.748;2023-11-22T04:36:35;26.77;;;14.80;;
18526;SDS011;9393;42.158;24.748;2023-11-22T04:39:41;26.40;;;13.90;;
18526;SDS011;9393;42.158;24.748;2023-11-22T04:42:47;26.77;;;14.47;;
18526;SDS011;9393;42.158;24.748;2023-11-22T04:45:51;27.17;;;14.97;;
18526;SDS011;9393;42.158;24.748;2023-11-22T04:48:56;26.97;;;14.20;;
18526;SDS011;9393;42.158;24.748;2023-11-22T04:52:00;20.20;;;13.50;;
18526;SDS011;9393;42.158;24.748;2023-11-22T04:55:04;21.90;;;13.73;;
18526;SDS011;9393;42.158;24.748;2023-11-22T04:58:11;25.93;;;14.27;;
18526;SDS011;9393;42.158;24.748;2023-11-22T05:01:15;27.60;;;13.60;;
18526;SDS011;9393;42.158;24.748;2023-11-22T05:04:22;26.93;;;13.97;;
18526;SDS011;9393;42.158;24.748;2023-11-22T05:07:29;23.20;;;13.23;;
18526;SDS011;9393;42.158;24.748;2023-11-22T05:10:33;20.97;;;13.57;;
18526;SDS011;9393;42.158;24.748;2023-11-22T05:13:40;23.57;;;13.83;;
18526;SDS011;9393;42.158;24.748;2023-11-22T05:16:45;29.90;;;14.03;;
18526;SDS011;9393;42.158;24.748;2023-11-22T05:19:50;24.00;;;15.43;;
18526;SDS011;9393;42.158;24.748;2023-11-22T05:22:54;29.00;;;18.07;;
18526;SDS011;9393;42.158;24.748;2023-11-22T05:25:58;29.10;;;17.33;;
18526;SDS011;9393;42.158;24.748;2023-11-22T05:29:04;26.33;;;17.57;;
18526;SDS011;9393;42.158;24.748;2023-11-22T05:32:09;30.93;;;17.37;;
18526;SDS011;9393;42.158;24.748;2023-11-22T05:35:13;29.07;;;16.37;;
18526;SDS011;9393;42.158;24.748;2023-11-22T05:38:18;30.10;;;16.20;;
18526;SDS011;9393;42.158;24.748;2023-11-22T05:41:22;24.20;;;15.17;;
18526;SDS011;9393;42.158;24.748;2023-11-22T05:44:29;30.63;;;16.80;;
18526;SDS011;9393;42.158;24.748;2023-11-22T05:47:34;21.97;;;15.03;;
18526;SDS011;9393;42.158;24.748;2023-11-22T05:50:39;28.13;;;14.80;;
18526;SDS011;9393;42.158;24.748;2023-11-22T05:53:43;24.53;;;14.90;;
18526;SDS011;9393;42.158;24.748;2023-11-22T05:56:48;26.80;;;16.40;;
18526;SDS011;9393;42.158;24.748;2023-11-22T05:59:54;23.80;;;14.30;;
18526;SDS011;9393;42.158;24.748;2023-11-22T06:02:58;27.43;;;15.37;;
18526;SDS011;9393;42.158;24.748;2023-11-22T06:06:03;23.83;;;14.00;;
18526;SDS011;9393;42.158;24.748;2023-11-22T06:09:07;27.97;;;14.07;;
18526;SDS011;9393;42.158;24.748;2023-11-22T06:12:14;29.43;;;14.53;;
18526;SDS011;9393;42.158;24.748;2023-11-22T06:15:20;30.03;;;14.13;;
18526;SDS011;9393;42.158;24.748;2023-11-22T06:18:25;22.50;;;13.83;;
18526;SDS011;9393;42.158;24.748;2023-11-22T06:21:32;28.40;;;15.20;;
18526;SDS011;9393;42.158;24.748;2023-11-22T06:24:37;30.90;;;15.20;;
18526;SDS011;9393;42.158;24.748;2023-11-22T06:27:41;24.20;;;15.17;;
18526;SDS011;9393;42.158;24.748;2023-11-22T06:30:47;31.10;;;15.03;;
18526;SDS011;9393;42.158;24.748;2023-11-22T06:33:52;37.10;;;18.57;;
18526;SDS011;9393;42.158;24.748;2023-11-22T06:36:56;28.20;;;13.93;;
18526;SDS011;9393;42.158;24.748;2023-11-22T06:40:00;25.70;;;14.33;;
18526;SDS011;9393;42.158;24.748;2023-11-22T06:43:06;22.77;;;13.43;;
18526;SDS011;9393;42.158;24.748;2023-11-22T06:46:12;28.33;;;13.90;;
18526;SDS011;9393;42.158;24.748;2023-11-22T06:49:18;19.03;;;12.23;;
18526;SDS011;9393;42.158;24.748;2023-11-22T06:52:23;20.07;;;12.90;;
18526;SDS011;9393;42.158;24.748;2023-11-22T06:55:27;22.70;;;13.07;;
18526;SDS011;9393;42.158;24.748;2023-11-22T06:58:33;24.10;;;12.53;;
18526;SDS011;9393;42.158;24.748;2023-11-22T07:01:38;19.77;;;12.67;;
18526;SDS011;9393;42.158;24.748;2023-11-22T07:04:43;24.10;;;12.60;;
18526;SDS011;9393;42.158;24.748;2023-11-22T07:07:47;20.93;;;12.63;;
18526;SDS011;9393;42.158;24.748;2023-11-22T07:10:52;20.30;;;12.93;;
18526;SDS011;9393;42.158;24.748;2023-11-22T07:13:56;26.87;;;13.90;;
18526;SDS011;9393;42.158;24.748;2023-11-22T07:17:02;21.57;;;13.43;;
18526;SDS011;9393;42.158;24.748;2023-11-22T07:20:09;22.87;;;12.90;;
18526;SDS011;9393;42.158;24.748;2023-11-22T07:23:18;20.83;;;12.63;;
18526;SDS011;9393;42.158;24.748;2023-11-22T07:26:28;21.07;;;12.43;;
18526;SDS011;9393;42.158;24.748;2023-11-22T07:29:32;20.77;;;12.73;;
18526;SDS011;9393;42.158;24.748;2023-11-22T07:32:39;22.33;;;12.80;;
18526;SDS011;9393;42.158;24.748;2023-11-22T07:35:43;26.03;;;13.53;;
18526;SDS011;9393;42.158;24.748;2023-11-22T07:38:48;20.67;;;13.97;;
18526;SDS011;9393;42.158;24.748;2023-11-22T07:41:56;26.10;;;15.47;;
18526;SDS011;9393;42.158;24.748;2023-11-22T07:45:00;22.50;;;13.83;;
18526;SDS011;9393;42.158;24.748;2023-11-22T07:48:06;22.70;;;15.00;;
18526;SDS011;9393;42.158;24.748;2023-11-22T07:51:13;21.27;;;13.73;;
18526;SDS011;9393;42.158;24.748;2023-11-22T07:54:19;22.87;;;14.17;;
18526;SDS011;9393;42.158;24.748;2023-11-22T07:57:24;19.80;;;13.50;;
18526;SDS011;9393;42.158;24.748;2023-11-22T08:00:29;25.83;;;13.70;;
18526;SDS011;9393;42.158;24.748;2023-11-22T08:03:35;26.27;;;14.93;;
18526;SDS011;9393;42.158;24.748;2023-11-22T08:06:40;25.97;;;15.10;;
18526;SDS011;9393;42.158;24.748;2023-11-22T08:09:46;32.63;;;17.17;;
18526;SDS011;9393;42.158;24.748;2023-11-22T08:12:53;29.00;;;16.33;;
18526;SDS011;9393;42.158;24.748;2023-11-22T08:15:57;26.50;;;15.43;;
18526;SDS011;9393;42.158;24.748;2023-11-22T08:19:03;31.80;;;15.43;;
18526;SDS011;9393;42.158;24.748;2023-11-22T08:22:10;26.43;;;15.63;;
18526;SDS011;9393;42.158;24.748;2023-11-22T08:25:14;29.03;;;15.77;;
18526;SDS011;9393;42.158;24.748;2023-11-22T08:28:18;29.07;;;16.03;;
18526;SDS011;9393;42.158;24.748;2023-11-22T08:31:23;25.27;;;15.57;;
18526;SDS011;9393;42.158;24.748;2023-11-22T08:35:09;29.97;;;15.63;;
18526;SDS011;9393;42.158;24.748;2023-11-22T08:38:16;24.83;;;15.90;;
18526;SDS011;9393;42.158;24.748;2023-11-22T08:41:24;25.70;;;14.30;;
18526;SDS011;9393;42.158;24.748;2023-11-22T08:44:29;30.60;;;15.83;;
18526;SDS011;9393;42.158;24.748;2023-11-22T08:47:38;35.03;;;19.33;;
18526;SDS011;9393;42.158;24.748;2023-11-22T08:50:50;35.17;;;17.50;;
18526;SDS011;9393;42.158;24.748;2023-11-22T08:53:55;26.83;;;15.87;;
18526;SDS011;9393;42.158;24.748;2023-11-22T08:57:01;31.23;;;15.33;;
18526;SDS011;9393;42.158;24.748;2023-11-22T09:00:08;29.57;;;15.27;;
18526;SDS011;9393;42.158;24.748;2023-11-22T09:03:16;31.40;;;16.13;;
18526;SDS011;9393;42.158;24.748;2023-11-22T09:06:23;26.83;;;15.93;;
18526;SDS011;9393;42.158;24.748;2023-11-22T09:09:27;28.77;;;16.43;;
18526;SDS011;9393;42.158;24.748;2023-11-22T09:12:34;28.63;;;15.60;;
18526;SDS011;9393;42.158;24.748;2023-11-22T09:15:38;27.53;;;16.23;;
18526;SDS011;9393;42.158;24.748;2023-11-22T09:18:44;32.20;;;15.57;;
18526;SDS011;9393;42.158;24.748;2023-11-22T09:21:50;28.83;;;15.47;;
18526;SDS011;9393;42.158;24.748;2023-11-22T09:24:55;26.33;;;14.97;;
18526;SDS011;9393;42.158;24.748;2023-11-22T09:27:59;29.37;;;16.83;;
18526;SDS011;9393;42.158;24.748;2023-11-22T09:31:04;30.33;;;15.93;;
18526;SDS011;9393;42.158;24.748;2023-11-22T09:34:09;32.77;;;17.07;;
18526;SDS011;9393;42.158;24.748;2023-11-22T09:37:15;30.00;;;17.07;;
18526;SDS011;9393;42.158;24.748;2023-11-22T09:40:19;26.43;;;14.53;;
18526;SDS011;9393;42.158;24.748;2023-11-22T09:43:25;28.53;;;16.27;;
18526;SDS011;9393;42.158;24.748;2023-11-22T09:46:31;26.13;;;14.03;;
18526;SDS011;9393;42.158;24.748;2023-11-22T09:49:36;25.17;;;15.47;;
18526;SDS011;9393;42.158;24.748;2023-11-22T09:52:50;21.13;;;13.83;;
18526;SDS011;9393;42.158;24.748;2023-11-22T09:55:55;24.83;;;14.53;;
18526;SDS011;9393;42.158;24.748;2023-11-22T09:59:01;25.20;;;14.83;;
18526;SDS011;9393;42.158;24.748;2023-11-22T10:02:08;26.33;;;15.50;;
18526;SDS011;9393;42.158;24.748;2023-11-22T10:05:14;26.77;;;15.97;;
18526;SDS011;9393;42.158;24.748;2023-11-22T10:08:20;30.33;;;16.53;;
18526;SDS011;9393;42.158;24.748;2023-11-22T10:11:25;30.37;;;16.57;;
18526;SDS011;9393;42.158;24.748;2023-11-22T10:14:31;32.47;;;16.10;;
18526;SDS011;9393;42.158;24.748;2023-11-22T10:17:36;29.90;;;17.87;;
18526;SDS011;9393;42.158;24.748;2023-11-22T10:20:41;35.20;;;17.67;;
18526;SDS011;9393;42.158;24.748;2023-11-22T10:23:50;33.83;;;17.63;;
18526;SDS011;9393;42.158;24.748;2023-11-22T10:26:57;24.43;;;17.33;;
18526;SDS011;9393;42.158;24.748;2023-11-22T10:30:02;28.33;;;17.47;;
18526;SDS011;9393;42.158;24.748;2023-11-22T10:33:07;28.73;;;17.97;;
18526;SDS011;9393;42.158;24.748;2023-11-22T10:36:16;28.63;;;18.07;;
18526;SDS011;9393;42.158;24.748;2023-11-22T10:39:23;30.87;;;17.97;;
18526;SDS011;9393;42.158;24.748;2023-11-22T10:42:29;28.03;;;18.03;;
18526;SDS011;9393;42.158;24.748;2023-11-22T10:45:34;32.93;;;21.53;;
18526;SDS011;9393;42.158;24.748;2023-11-22T10:48:42;52.57;;;35.37;;
18526;SDS011;9393;42.158;24.748;2023-11-22T10:51:51;36.00;;;24.60;;
18526;SDS011;9393;42.158;24.748;2023-11-22T10:54:59;32.90;;;18.73;;
18526;SDS011;9393;42.158;24.748;2023-11-22T10:58:06;29.30;;;16.57;;
18526;SDS011;9393;42.158;24.748;2023-11-22T11:01:15;24.57;;;14.40;;
18526;SDS011;9393;42.158;24.748;2023-11-22T11:04:23;25.60;;;14.70;;
18526;SDS011;9393;42.158;24.748;2023-11-22T11:07:28;24.10;;;14.23;;
18526;SDS011;9393;42.158;24.748;2023-11-22T11:10:36;20.23;;;13.43;;
18526;SDS011;9393;42.158;24.748;2023-11-22T11:13:43;19.47;;;13.63;;
18526;SDS011;9393;42.158;24.748;2023-11-22T11:16:50;21.83;;;15.13;;
18526;SDS011;9393;42.158;24.748;2023-11-22T11:19:57;23.93;;;15.17;;
18526;SDS011;9393;42.158;24.748;2023-11-22T11:23:01;23.77;;;14.63;;
18526;SDS011;9393;42.158;24.748;2023-11-22T11:26:16;22.43;;;13.73;;
18526;SDS011;9393;42.158;24.748;2023-11-22T11:29:32;20.93;;;12.53;;
18526;SDS011;9393;42.158;24.748;2023-11-22T11:32:38;17.10;;;11.27;;
18526;SDS011;9393;42.158;24.748;2023-11-22T11:35:46;17.90;;;11.50;;
18526;SDS011;9393;42.158;24.748;2023-11-22T11:38:51;20.20;;;12.13;;
18526;SDS011;9393;42.158;24.748;2023-11-22T11:42:09;16.50;;;12.27;;
18526;SDS011;9393;42.158;24.748;2023-11-22T11:45:19;19.37;;;12.07;;
18526;SDS011;9393;42.158;24.748;2023-11-22T11:48:24;17.23;;;11.43;;
18526;SDS011;9393;42.158;24.748;2023-11-22T11:51:28;21.07;;;12.77;;
18526;SDS011;9393;42.158;24.748;2023-11-22T11:54:33;17.80;;;10.50;;
18526;SDS011;9393;42.158;24.748;2023-11-22T11:57:39;17.73;;;11.23;;
18526;SDS011;9393;42.158;24.748;2023-11-22T12:00:44;18.23;;;11.23;;
18526;SDS011;9393;42.158;24.748;2023-11-22T12:03:49;18.97;;;11.70;;
18526;SDS011;9393;42.158;24.748;2023-11-22T12:06:55;19.40;;;11.83;;
18526;SDS011;9393;42.158;24.748;2023-11-22T12:10:00;18.00;;;11.27;;
18526;SDS011;9393;42.158;24.748;2023-11-22T12:13:06;18.60;;;11.50;;
18526;SDS011;9393;42.158;24.748;2023-11-22T12:16:10;17.53;;;11.30;;
18526;SDS011;9393;42.158;24.748;2023-11-22T12:19:22;22.80;;;11.83;;
18526;SDS011;9393;42.158;24.748;2023-11-22T12:22:29;18.17;;;11.47;;
18526;SDS011;9393;42.158;24.748;2023-11-22T12:25:36;16.83;;;11.30;;
18526;SDS011;9393;42.158;24.748;2023-11-22T12:28:42;18.27;;;12.03;;
18526;SDS011;9393;42.158;24.748;2023-11-22T12:32:04;21.10;;;12.13;;
18526;SDS011;9393;42.158;24.748;2023-11-22T12:35:09;18.63;;;12.27;;
18526;SDS011;9393;42.158;24.748;2023-11-22T12:38:14;18.93;;;12.43;;
18526;SDS011;9393;42.158;24.748;2023-11-22T12:41:19;22.33;;;12.13;;
18526;SDS011;9393;42.158;24.748;2023-11-22T12:44:25;18.70;;;12.20;;
18526;SDS011;9393;42.158;24.748;2023-11-22T12:47:34;17.40;;;12.00;;
18526;SDS011;9393;42.158;24.748;2023-11-22T12:50:39;18.67;;;12.50;;
18526;SDS011;9393;42.158;24.748;2023-11-22T12:53:45;16.90;;;12.07;;
18526;SDS011;9393;42.158;24.748;2023-11-22T12:56:50;19.30;;;12.20;;
18526;SDS011;9393;42.158;24.748;2023-11-22T13:00:03;17.03;;;11.47;;
18526;SDS011;9393;42.158;24.748;2023-11-22T13:03:08;16.53;;;11.43;;
18526;SDS011;9393;42.158;24.748;2023-11-22T13:06:13;20.70;;;11.57;;
18526;SDS011;9393;42.158;24.748;2023-11-22T13:09:20;21.40;;;12.87;;
18526;SDS011;9393;42.158;24.748;2023-11-22T13:12:24;19.30;;;12.37;;
18526;SDS011;9393;42.158;24.748;2023-11-22T13:15:30;18.27;;;12.37;;
18526;SDS011;9393;42.158;24.748;2023-11-22T13:18:34;19.70;;;12.07;;
18526;SDS011;9393;42.158;24.748;2023-11-22T13:21:39;17.77;;;12.70;;
18526;SDS011;9393;42.158;24.748;2023-11-22T13:24:44;17.57;;;12.80;;
18526;SDS011;9393;42.158;24.748;2023-11-22T13:27:48;18.17;;;12.57;;
18526;SDS011;9393;42.158;24.748;2023-11-22T13:30:55;21.73;;;14.17;;
18526;SDS011;9393;42.158;24.748;2023-11-22T13:34:00;20.17;;;13.47;;
18526;SDS011;9393;42.158;24.748;2023-11-22T13:37:04;22.53;;;13.67;;
18526;SDS011;9393;42.158;24.748;2023-11-22T13:40:23;20.57;;;13.53;;
18526;SDS011;9393;42.158;24.748;2023-11-22T13:43:29;23.07;;;14.10;;
18526;SDS011;9393;42.158;24.748;2023-11-22T13:46:36;20.20;;;13.37;;
18526;SDS011;9393;42.158;24.748;2023-11-22T13:49:41;23.30;;;13.93;;
18526;SDS011;9393;42.158;24.748;2023-11-22T13:52:46;28.60;;;14.23;;
18526;SDS011;9393;42.158;24.748;2023-11-22T13:55:50;24.33;;;16.20;;
18526;SDS011;9393;42.158;24.748;2023-11-22T13:58:56;24.27;;;14.93;;
18526;SDS011;9393;42.158;24.748;2023-11-22T14:02:03;23.57;;;15.23;;
18526;SDS011;9393;42.158;24.748;2023-11-22T14:05:07;22.40;;;15.03;;
18526;SDS011;9393;42.158;24.748;2023-11-22T14:08:14;26.50;;;15.10;;
18526;SDS011;9393;42.158;24.748;2023-11-22T14:11:19;29.47;;;15.63;;
18526;SDS011;9393;42.158;24.748;2023-11-22T14:14:23;29.07;;;15.27;;
18526;SDS011;9393;42.158;24.748;2023-11-22T14:17:29;28.27;;;15.70;;
18526;SDS011;9393;42.158;24.748;2023-11-22T14:20:33;24.17;;;16.27;;
18526;SDS011;9393;42.158;24.748;2023-11-22T14:23:39;27.40;;;15.67;;
18526;SDS011;9393;42.158;24.748;2023-11-22T14:26:43;20.13;;;13.57;;
18526;SDS011;9393;42.158;24.748;2023-11-22T14:29:51;25.70;;;14.80;;
18526;SDS011;9393;42.158;24.748;2023-11-22T14:32:57;23.90;;;14.23;;
18526;SDS011;9393;42.158;24.748;2023-11-22T14:36:02;24.13;;;13.90;;
18526;SDS011;9393;42.158;24.748;2023-11-22T14:39:08;24.40;;;14.63;;
18526;SDS011;9393;42.158;24.748;2023-11-22T14:42:14;23.00;;;14.73;;
18526;SDS011;9393;42.158;24.748;2023-11-22T14:45:19;24.00;;;14.30;;
18526;SDS011;9393;42.158;24.748;2023-11-22T14:48:26;21.73;;;14.77;;
18526;SDS011;9393;42.158;24.748;2023-11-22T14:51:31;24.93;;;14.93;;
18526;SDS011;9393;42.158;24.748;2023-11-22T14:54:36;25.60;;;14.53;;
18526;SDS011;9393;42.158;24.748;2023-11-22T14:57:40;21.60;;;14.93;;
18526;SDS011;9393;42.158;24.748;2023-11-22T15:00:45;24.57;;;15.27;;
18526;SDS011;9393;42.158;24.748;2023-11-22T15:03:52;23.77;;;16.27;;
18526;SDS011;9393;42.158;24.748;2023-11-22T15:06:57;24.90;;;17.27;;
18526;SDS011;9393;42.158;24.748;2023-11-22T15:10:03;24.70;;;15.67;;
18526;SDS011;9393;42.158;24.748;2023-11-22T15:13:07;24.10;;;15.83;;
18526;SDS011;9393;42.158;24.748;2023-11-22T15:16:13;36.30;;;19.80;;
18526;SDS011;9393;42.158;24.748;2023-11-22T15:19:20;28.57;;;18.13;;
18526;SDS011;9393;42.158;24.748;2023-11-22T15:22:26;31.37;;;20.63;;
18526;SDS011;9393;42.158;24.748;2023-11-22T15:25:31;30.47;;;19.00;;
18526;SDS011;9393;42.158;24.748;2023-11-22T15:28:35;26.60;;;18.53;;
18526;SDS011;9393;42.158;24.748;2023-11-22T15:31:40;31.73;;;20.47;;
18526;SDS011;9393;42.158;24.748;2023-11-22T15:34:46;29.70;;;16.30;;
18526;SDS011;9393;42.158;24.748;2023-11-22T15:37:50;28.33;;;17.60;;
18526;SDS011;9393;42.158;24.748;2023-11-22T15:40:55;31.27;;;16.23;;
18526;SDS011;9393;42.158;24.748;2023-11-22T15:44:12;25.03;;;16.50;;
18526;SDS011;9393;42.158;24.748;2023-11-22T15:47:18;33.93;;;18.67;;
18526;SDS011;9393;42.158;24.748;2023-11-22T15:50:24;36.57;;;18.73;;
18526;SDS011;9393;42.158;24.748;2023-11-22T15:53:29;29.67;;;19.97;;
18526;SDS011;9393;42.158;24.748;2023-11-22T15:56:34;28.47;;;18.53;;
18526;SDS011;9393;42.158;24.748;2023-11-22T15:59:38;38.10;;;21.37;;
18526;SDS011;9393;42.158;24.748;2023-11-22T16:02:43;37.30;;;21.83;;
18526;SDS011;9393;42.158;24.748;2023-11-22T16:05:49;33.60;;;22.00;;
18526;SDS011;9393;42.158;24.748;2023-11-22T16:08:56;32.90;;;21.90;;
18526;SDS011;9393;42.158;24.748;2023-11-22T16:12:00;37.87;;;22.13;;
18526;SDS011;9393;42.158;24.748;2023-11-22T16:15:05;33.00;;;21.00;;
18526;SDS011;9393;42.158;24.748;2023-11-22T16:18:10;37.57;;;19.90;;
18526;SDS011;9393;42.158;24.748;2023-11-22T16:21:17;31.77;;;19.33;;
18526;SDS011;9393;42.158;24.748;2023-11-22T16:24:22;31.53;;;19.87;;
18526;SDS011;9393;42.158;24.748;2023-11-22T16:27:26;31.23;;;19.67;;
18526;SDS011;9393;42.158;24.748;2023-11-22T16:30:30;37.67;;;20.77;;
18526;SDS011;9393;42.158;24.748;2023-11-22T16:33:35;37.53;;;22.43;;
18526;SDS011;9393;42.158;24.748;2023-11-22T16:36:41;41.33;;;25.90;;
18526;SDS011;9393;42.158;24.748;2023-11-22T16:39:45;39.50;;;24.50;;
18526;SDS011;9393;42.158;24.748;2023-11-22T16:42:49;64.53;;;41.20;;
18526;SDS011;9393;42.158;24.748;2023-11-22T16:45:54;65.53;;;38.33;;
18526;SDS011;9393;42.158;24.748;2023-11-22T16:48:58;65.70;;;38.00;;
18526;SDS011;9393;42.158;24.748;2023-11-22T16:52:04;66.47;;;36.23;;
18526;SDS011;9393;42.158;24.748;2023-11-22T16:55:09;77.73;;;41.47;;
18526;SDS011;9393;42.158;24.748;2023-11-22T16:58:14;63.10;;;36.87;;
18526;SDS011;9393;42.158;24.748;2023-11-22T17:01:20;64.03;;;37.40;;
18526;SDS011;9393;42.158;24.748;2023-11-22T17:04:25;59.67;;;36.50;;
18526;SDS011;9393;42.158;24.748;2023-11-22T17:07:31;55.93;;;30.20;;
18526;SDS011;9393;42.158;24.748;2023-11-22T17:10:35;52.50;;;30.47;;
18526;SDS011;9393;42.158;24.748;2023-11-22T17:13:48;48.13;;;27.23;;
18526;SDS011;9393;42.158;24.748;2023-11-22T17:16:52;50.00;;;27.90;;
18526;SDS011;9393;42.158;24.748;2023-11-22T17:19:56;52.73;;;28.67;;
18526;SDS011;9393;42.158;24.748;2023-11-22T17:23:03;49.57;;;27.57;;
18526;SDS011;9393;42.158;24.748;2023-11-22T17:26:08;43.93;;;26.20;;
18526;SDS011;9393;42.158;24.748;2023-11-22T17:29:14;42.70;;;25.03;;
18526;SDS011;9393;42.158;24.748;2023-11-22T17:32:18;42.50;;;26.37;;
18526;SDS011;9393;42.158;24.748;2023-11-22T17:35:23;36.63;;;22.83;;
18526;SDS011;9393;42.158;24.748;2023-11-22T17:38:29;40.80;;;23.60;;
18526;SDS011;9393;42.158;24.748;2023-11-22T17:41:33;46.17;;;23.47;;
18526;SDS011;9393;42.158;24.748;2023-11-22T17:44:38;40.37;;;23.97;;
18526;SDS011;9393;42.158;24.748;2023-11-22T17:47:42;42.57;;;24.17;;
18526;SDS011;9393;42.158;24.748;2023-11-22T17:50:47;46.97;;;25.73;;
18526;SDS011;9393;42.158;24.748;2023-11-22T17:53:53;38.83;;;25.30;;
18526;SDS011;9393;42.158;24.748;2023-11-22T17:56:57;42.67;;;25.33;;
18526;SDS011;9393;42.158;24.748;2023-11-22T18:00:02;49.57;;;27.57;;
18526;SDS011;9393;42.158;24.748;2023-11-22T18:03:13;54.57;;;28.00;;
18526;SDS011;9393;42.158;24.748;2023-11-22T18:06:17;53.10;;;29.37;;